Airfield :
LOGIN :

Register | Disclaimer

   EN    FR    IT 

 










Legend :    VFR   Marginal VFR   IFR   Intensive IFR   Very Intensive IFR
Visi :
Ceiling :
>= 8 km
>= 3000ft
5 to 8 km
1000 to 3000 ft
1500m to 5 km
500 to 1000 ft
800 to 1500m
200 to 500 ft
< 800m
< 200 ft
Symbols :   Thunderstorms  Fog  Heavy snow  Heavy precipitations  Wind > 20 kt
SIGMETs :     Misc.  Thunderstorms  Icing  Turbulence  Mountain Waves  Volcanic Ashes






- Airport Elevation : 289 ft


LFYR - Romorantin Pruniers

CURRENT METAR :
  • 141430Z AUTO 18004KT 120V220 CAVOK 24/11 Q1021

EXPIRED METARs :
  • 141400Z AUTO 23005KT 180V290 CAVOK 24/11 Q1021
  • 141330Z AUTO VRB04KT CAVOK 24/11 Q1022
  • 141300Z AUTO VRB03KT CAVOK 24/13 Q1022
  • 141230Z AUTO VRB02KT CAVOK 23/13 Q1023
  • 141200Z AUTO VRB02KT CAVOK 23/12 Q1023
  • 141130Z AUTO 08003KT 040V150 CAVOK 22/12 Q1023
  • 141100Z AUTO VRB03KT CAVOK 21/11 Q1024
  • 141030Z AUTO 00000KT CAVOK 21/11 Q1024
  • 141000Z AUTO VRB02KT CAVOK 20/12 Q1024

Expired Forecast.



MET'MAP, your aeronautical weather chart ! - Copyright ORBIFLY December 2007 - Disclaimer

ORBIFLY MET'MAP TEAM :

Programming & Development : Alexandra Zaïnal
Original concept : Baudouin d'Aumeries
Technical & hardware support : Manuel Goepfert
Assistance : Marc-Olivier Méhu




SOURCES & CREDITS :

   NOAA